createdAt,value
2018-08-22T00:00:19.021Z,11.77
2018-08-22T00:02:46.296Z,10.93
2018-08-22T00:05:14.490Z,10.23
2018-08-22T00:07:42.757Z,12.03
2018-08-22T00:10:11.074Z,12.07
2018-08-22T00:12:39.330Z,11.23
2018-08-22T00:15:07.809Z,11.87
2018-08-22T00:17:36.010Z,11.60
2018-08-22T00:20:04.214Z,11.10
2018-08-22T00:22:32.564Z,12.10
2018-08-22T00:25:00.794Z,11.63
2018-08-22T00:27:29.065Z,11.70
2018-08-22T00:29:57.290Z,10.30
2018-08-22T00:32:25.462Z,12.73
2018-08-22T00:34:53.657Z,11.70
2018-08-22T00:37:21.848Z,12.80
2018-08-22T00:39:50.110Z,12.43
2018-08-22T00:42:18.397Z,11.37
2018-08-22T00:44:46.689Z,11.20
2018-08-22T00:47:14.974Z,11.40
2018-08-22T00:49:43.165Z,11.40
2018-08-22T00:52:11.379Z,11.53
2018-08-22T00:54:39.766Z,11.17
2018-08-22T00:57:08.095Z,11.67
2018-08-22T00:59:36.326Z,11.53
2018-08-22T01:02:04.606Z,11.50
2018-08-22T01:04:32.942Z,12.40
2018-08-22T01:07:01.174Z,11.93
2018-08-22T01:09:29.364Z,11.80
2018-08-22T01:11:57.685Z,12.20
2018-08-22T01:14:25.874Z,11.70
2018-08-22T01:16:54.090Z,11.40
2018-08-22T01:19:22.319Z,11.67
2018-08-22T01:21:50.517Z,12.80
2018-08-22T01:24:18.734Z,11.50
2018-08-22T01:26:46.939Z,12.50
2018-08-22T01:29:15.172Z,10.80
2018-08-22T01:31:43.362Z,12.10
2018-08-22T01:34:11.600Z,11.57
2018-08-22T01:36:39.817Z,12.97
2018-08-22T01:39:08.386Z,11.27
2018-08-22T01:41:36.584Z,11.17
2018-08-22T01:44:04.798Z,11.07
2018-08-22T01:46:33.161Z,11.90
2018-08-22T01:49:01.366Z,14.00
2018-08-22T01:51:29.570Z,12.27
2018-08-22T01:53:57.773Z,12.07
2018-08-22T01:56:25.965Z,13.00
2018-08-22T01:58:54.203Z,11.20
2018-08-22T02:01:22.394Z,12.13
2018-08-22T02:03:50.907Z,12.60
2018-08-22T02:06:19.194Z,11.03
2018-08-22T02:08:47.390Z,13.00
2018-08-22T02:11:16.770Z,11.97
2018-08-22T02:13:45.070Z,12.50
2018-08-22T02:16:13.269Z,12.13
2018-08-22T02:18:41.550Z,11.70
2018-08-22T02:21:09.741Z,12.33
2018-08-22T02:23:37.929Z,12.33
2018-08-22T02:26:06.151Z,12.10
2018-08-22T02:28:34.359Z,12.60
2018-08-22T02:31:09.314Z,12.53
2018-08-22T02:33:37.519Z,12.47
2018-08-22T02:36:05.855Z,12.73
2018-08-22T02:38:34.074Z,12.00
2018-08-22T02:41:02.311Z,11.70
2018-08-22T02:43:30.586Z,11.70
2018-08-22T02:45:58.807Z,11.93
2018-08-22T02:48:27.055Z,12.80
2018-08-22T02:50:55.274Z,11.37
2018-08-22T02:53:23.487Z,12.73
2018-08-22T02:55:51.728Z,12.83
2018-08-22T02:58:19.920Z,12.40
2018-08-22T03:00:48.218Z,13.93
2018-08-22T03:03:16.406Z,11.17
2018-08-22T03:05:44.620Z,12.37
2018-08-22T03:08:12.843Z,12.67
2018-08-22T03:10:41.054Z,12.70
2018-08-22T03:13:09.319Z,12.87
2018-08-22T03:15:37.662Z,12.47
2018-08-22T03:18:05.863Z,11.80
2018-08-22T03:20:34.087Z,11.90
2018-08-22T03:23:02.315Z,13.37
2018-08-22T03:25:30.568Z,11.60
2018-08-22T03:27:58.782Z,11.40
2018-08-22T03:30:27.005Z,12.90
2018-08-22T03:32:55.210Z,12.93
2018-08-22T03:35:23.498Z,11.90
2018-08-22T03:37:51.999Z,12.70
2018-08-22T03:40:20.283Z,12.73
2018-08-22T03:42:48.566Z,13.03
2018-08-22T03:45:16.886Z,12.50
2018-08-22T03:47:45.162Z,12.27
2018-08-22T03:50:13.395Z,12.00
2018-08-22T03:52:41.704Z,12.73
2018-08-22T03:55:09.899Z,12.43
2018-08-22T03:57:38.795Z,13.47
2018-08-22T04:00:07.055Z,13.43
2018-08-22T04:02:35.375Z,13.23
2018-08-22T04:05:05.650Z,13.70
2018-08-22T04:07:33.862Z,12.83
2018-08-22T04:10:02.056Z,13.10
2018-08-22T04:12:30.318Z,12.03
2018-08-22T04:14:58.573Z,14.30
2018-08-22T04:17:32.683Z,13.57
2018-08-22T04:20:01.211Z,13.37
2018-08-22T04:22:29.475Z,13.10
2018-08-22T04:24:57.687Z,13.57
2018-08-22T04:27:25.915Z,12.67
2018-08-22T04:29:54.178Z,11.80
2018-08-22T04:32:25.542Z,13.40
2018-08-22T04:34:53.845Z,12.50
2018-08-22T04:37:22.086Z,14.87
2018-08-22T04:39:50.551Z,14.07
2018-08-22T04:42:18.783Z,13.77
2018-08-22T04:44:47.582Z,13.70
2018-08-22T04:47:15.787Z,14.60
2018-08-22T04:49:43.982Z,14.00
2018-08-22T04:52:12.410Z,15.20
2018-08-22T04:54:40.599Z,13.10
2018-08-22T04:57:08.815Z,14.20
2018-08-22T04:59:37.020Z,15.57
2018-08-22T05:02:05.217Z,15.73
2018-08-22T05:04:33.433Z,14.40
2018-08-22T05:07:01.655Z,15.20
2018-08-22T05:09:29.853Z,14.50
2018-08-22T05:11:58.105Z,14.53
2018-08-22T05:14:26.323Z,14.83
2018-08-22T05:16:54.535Z,14.23
2018-08-22T05:19:22.755Z,14.40
2018-08-22T05:21:50.951Z,15.17
2018-08-22T05:24:19.158Z,15.43
2018-08-22T05:26:47.383Z,14.97
2018-08-22T05:29:15.615Z,13.93
2018-08-22T05:31:43.839Z,14.57
2018-08-22T05:34:12.062Z,14.80
2018-08-22T05:36:40.259Z,15.43
2018-08-22T05:39:10.618Z,15.90
2018-08-22T05:41:38.820Z,15.00
2018-08-22T05:44:07.027Z,14.67
2018-08-22T05:46:35.227Z,16.40
2018-08-22T05:49:03.481Z,15.70
2018-08-22T05:51:31.750Z,14.43
2018-08-22T05:53:59.987Z,14.13
2018-08-22T05:56:28.207Z,14.20
2018-08-22T05:58:56.407Z,14.40
2018-08-22T06:01:24.619Z,14.77
2018-08-22T06:03:52.834Z,14.53
2018-08-22T06:06:21.093Z,16.50
2018-08-22T06:08:49.290Z,15.20
2018-08-22T06:11:17.543Z,16.00
2018-08-22T06:13:45.755Z,15.90
2018-08-22T06:16:13.955Z,15.47
2018-08-22T06:18:42.211Z,15.83
2018-08-22T06:21:10.420Z,16.43
2018-08-22T06:23:38.607Z,15.27
2018-08-22T06:26:06.836Z,14.90
2018-08-22T06:28:35.057Z,16.37
2018-08-22T06:31:03.262Z,15.60
2018-08-22T06:33:31.499Z,16.67
2018-08-22T06:35:59.691Z,15.10
2018-08-22T06:38:27.919Z,14.53
2018-08-22T06:40:56.135Z,17.13
2018-08-22T06:43:24.346Z,16.20
2018-08-22T06:45:52.542Z,16.53
2018-08-22T06:48:20.763Z,15.23
2018-08-22T06:50:48.994Z,15.97
2018-08-22T06:53:17.235Z,16.23
2018-08-22T06:55:45.444Z,15.80
2018-08-22T06:58:13.912Z,16.47
2018-08-22T07:00:42.118Z,14.80
2018-08-22T07:03:10.385Z,17.00
2018-08-22T07:05:38.649Z,16.40
2018-08-22T07:08:06.869Z,16.93
2018-08-22T07:10:35.063Z,17.67
2018-08-22T07:13:03.295Z,17.17
2018-08-22T07:15:31.612Z,20.13
2018-08-22T07:17:59.843Z,18.70
2018-08-22T07:20:28.052Z,21.40
2018-08-22T07:22:56.258Z,22.20
2018-08-22T07:25:24.447Z,21.07
2018-08-22T07:27:52.688Z,21.87
2018-08-22T07:30:20.887Z,21.13
2018-08-22T07:32:49.170Z,22.97
2018-08-22T07:35:17.375Z,22.60
2018-08-22T07:37:45.566Z,23.47
2018-08-22T07:40:13.843Z,23.17
2018-08-22T07:42:42.074Z,22.20
2018-08-22T07:45:10.311Z,24.03
2018-08-22T07:47:38.524Z,21.10
2018-08-22T07:50:06.912Z,21.63
2018-08-22T07:52:35.083Z,22.07
2018-08-22T07:55:03.423Z,21.83
2018-08-22T07:57:31.667Z,21.10
2018-08-22T08:00:00.114Z,21.43
2018-08-22T08:02:28.316Z,20.40
2018-08-22T08:04:56.588Z,22.10
2018-08-22T08:07:24.818Z,18.27
2018-08-22T08:09:53.123Z,17.10
2018-08-22T08:12:25.506Z,16.40
2018-08-22T08:14:59.319Z,15.10
2018-08-22T08:17:27.620Z,15.37
2018-08-22T08:19:55.927Z,14.60
2018-08-22T08:22:24.196Z,13.50
2018-08-22T08:24:52.427Z,15.07
2018-08-22T08:27:20.674Z,15.10
2018-08-22T08:29:49.519Z,16.13
2018-08-22T08:32:17.727Z,15.07
2018-08-22T08:34:46.047Z,13.33
2018-08-22T08:37:14.283Z,13.93
2018-08-22T08:39:42.535Z,13.07
2018-08-22T08:42:10.864Z,15.33
2018-08-22T08:44:39.188Z,12.80
2018-08-22T08:47:07.387Z,13.50
2018-08-22T08:49:38.448Z,13.30
2018-08-22T08:52:06.638Z,13.67
2018-08-22T08:54:34.904Z,12.77
2018-08-22T08:57:03.155Z,12.07
2018-08-22T08:59:31.388Z,12.10
2018-08-22T09:01:59.650Z,13.93
2018-08-22T09:04:27.955Z,12.90
2018-08-22T09:06:56.203Z,13.13
2018-08-22T09:09:24.511Z,13.40
2018-08-22T09:11:59.829Z,13.97
2018-08-22T09:14:28.474Z,12.80
2018-08-22T09:16:57.394Z,12.57
2018-08-22T09:19:25.635Z,12.53
2018-08-22T09:21:53.872Z,12.80
2018-08-22T09:24:22.109Z,12.40
2018-08-22T09:26:50.335Z,12.50
2018-08-22T09:29:18.535Z,13.40
2018-08-22T09:31:46.798Z,12.77
2018-08-22T09:34:15.030Z,13.07
2018-08-22T09:36:43.271Z,13.43
2018-08-22T09:39:12.958Z,12.77
2018-08-22T09:41:41.451Z,13.50
2018-08-22T09:44:09.692Z,13.30
2018-08-22T09:46:38.986Z,11.90
2018-08-22T09:49:07.244Z,14.90
2018-08-22T09:51:35.523Z,12.70
2018-08-22T09:54:03.750Z,14.63
2018-08-22T09:56:32.234Z,12.93
2018-08-22T09:59:00.490Z,13.00
2018-08-22T10:01:33.877Z,13.17
2018-08-22T10:04:02.635Z,12.27
2018-08-22T10:06:40.742Z,13.63
2018-08-22T10:09:13.927Z,12.63
2018-08-22T10:11:42.216Z,13.57
2018-08-22T10:14:10.471Z,12.10
2018-08-22T10:16:38.771Z,11.73
2018-08-22T10:19:07.123Z,11.77
2018-08-22T10:21:35.370Z,12.80
2018-08-22T10:24:03.600Z,13.07
2018-08-22T10:26:32.894Z,12.77
2018-08-22T10:29:32.111Z,12.83
2018-08-22T10:32:00.468Z,12.20
2018-08-22T10:34:28.771Z,12.93
2018-08-22T10:36:57.036Z,12.93
2018-08-22T10:39:25.330Z,12.70
2018-08-22T10:41:53.560Z,12.87
2018-08-22T10:44:21.810Z,12.57
2018-08-22T10:46:50.015Z,12.50
2018-08-22T10:49:18.243Z,12.90
2018-08-22T10:51:46.481Z,12.57
2018-08-22T10:54:14.725Z,12.10
2018-08-22T10:56:42.958Z,13.30
2018-08-22T10:59:11.173Z,12.70
2018-08-22T11:01:39.362Z,12.70
2018-08-22T11:04:07.575Z,13.30
2018-08-22T11:06:35.783Z,11.60
2018-08-22T11:09:06.240Z,12.40
2018-08-22T11:11:34.527Z,12.10
2018-08-22T11:14:02.783Z,12.80
2018-08-22T11:16:30.979Z,13.87
2018-08-22T11:18:59.310Z,12.93
2018-08-22T11:21:38.971Z,12.77
2018-08-22T11:24:18.533Z,13.20
2018-08-22T11:26:57.959Z,13.63
2018-08-22T11:29:37.435Z,13.40
2018-08-22T11:32:17.060Z,13.40
2018-08-22T11:34:45.900Z,13.37
2018-08-22T11:37:15.191Z,12.57
2018-08-22T11:39:45.274Z,13.53
2018-08-22T11:42:13.499Z,13.20
2018-08-22T11:44:41.718Z,13.13
2018-08-22T11:47:09.912Z,14.23
2018-08-22T11:49:38.126Z,12.77
2018-08-22T11:52:06.372Z,13.00
2018-08-22T11:54:34.551Z,12.00
2018-08-22T11:57:02.947Z,11.83
2018-08-22T11:59:31.322Z,12.30
2018-08-22T12:01:59.577Z,13.13
2018-08-22T12:04:27.778Z,12.63
2018-08-22T12:06:56.035Z,13.53
2018-08-22T12:09:24.311Z,13.00
2018-08-22T12:11:52.499Z,12.67
2018-08-22T12:14:20.779Z,13.10
2018-08-22T12:16:48.985Z,12.90
2018-08-22T12:19:17.183Z,13.60
2018-08-22T12:21:45.382Z,12.30
2018-08-22T12:24:13.588Z,13.50
2018-08-22T12:26:41.794Z,12.97
2018-08-22T12:29:10.186Z,12.23
2018-08-22T12:31:38.424Z,13.37
2018-08-22T12:34:06.644Z,13.00
2018-08-22T12:36:34.847Z,14.07
2018-08-22T12:39:03.091Z,12.40
2018-08-22T12:41:31.401Z,12.80
2018-08-22T12:43:59.591Z,12.33
2018-08-22T12:46:27.779Z,12.30
2018-08-22T12:48:55.975Z,12.77
2018-08-22T12:51:24.181Z,11.63
2018-08-22T12:53:52.375Z,12.27
2018-08-22T12:56:20.607Z,12.70
2018-08-22T12:58:48.799Z,13.50
2018-08-22T13:01:16.986Z,13.30
2018-08-22T13:03:45.179Z,12.80
2018-08-22T13:06:13.377Z,12.93
2018-08-22T13:08:41.589Z,13.60
2018-08-22T13:11:09.893Z,12.00
2018-08-22T13:13:37.996Z,12.83
2018-08-22T13:16:06.198Z,12.63
2018-08-22T13:18:34.435Z,11.57
2018-08-22T13:21:02.631Z,12.20
2018-08-22T13:23:30.840Z,12.57
2018-08-22T13:25:59.027Z,13.20
2018-08-22T13:28:27.231Z,13.40
2018-08-22T13:30:55.432Z,12.27
2018-08-22T13:33:23.642Z,12.83
2018-08-22T13:35:51.838Z,13.77
2018-08-22T13:38:20.035Z,12.50
2018-08-22T13:40:48.235Z,13.40
2018-08-22T13:43:16.475Z,12.77
2018-08-22T13:45:44.672Z,12.90
2018-08-22T13:48:12.855Z,12.77
2018-08-22T13:50:41.072Z,11.87
2018-08-22T13:53:09.278Z,13.17
2018-08-22T13:55:37.555Z,11.93
2018-08-22T13:58:05.768Z,12.27
2018-08-22T14:00:33.967Z,11.97
2018-08-22T14:03:02.187Z,12.30
2018-08-22T14:05:30.400Z,12.43
2018-08-22T14:07:58.811Z,13.07
2018-08-22T14:10:27.019Z,12.50
2018-08-22T14:12:55.258Z,11.43
2018-08-22T14:15:23.512Z,12.00
2018-08-22T14:17:51.710Z,12.40
2018-08-22T14:20:19.919Z,12.30
2018-08-22T14:22:48.122Z,11.77
2018-08-22T14:25:16.325Z,12.37
2018-08-22T14:27:44.651Z,14.03
2018-08-22T14:30:12.854Z,11.90
2018-08-22T14:32:41.052Z,12.90
2018-08-22T14:35:09.286Z,12.80
2018-08-22T14:37:37.586Z,11.80
2018-08-22T14:40:05.823Z,12.90
2018-08-22T14:42:34.008Z,12.70
2018-08-22T14:45:02.259Z,12.63
2018-08-22T14:47:30.431Z,12.77
2018-08-22T14:50:10.687Z,13.20
2018-08-22T14:52:39.003Z,13.50
2018-08-22T14:55:07.255Z,13.00
2018-08-22T14:57:35.459Z,12.00
2018-08-22T15:00:03.711Z,13.87
2018-08-22T15:02:32.075Z,13.07
2018-08-22T15:05:00.233Z,13.47
2018-08-22T15:07:28.447Z,13.10
2018-08-22T15:09:56.655Z,13.47
2018-08-22T15:12:24.907Z,13.00
2018-08-22T15:14:53.198Z,13.43
2018-08-22T15:17:21.402Z,12.70
2018-08-22T15:19:49.604Z,12.97
2018-08-22T15:22:17.879Z,13.40
2018-08-22T15:24:46.099Z,12.63
2018-08-22T15:27:14.322Z,12.50
2018-08-22T15:29:42.506Z,13.33
2018-08-22T15:32:10.730Z,14.03
2018-08-22T15:34:47.619Z,12.37
2018-08-22T15:37:16.033Z,14.40
2018-08-22T15:42:46.371Z,11.70
2018-08-22T15:45:15.097Z,10.53
2018-08-22T15:47:43.428Z,10.70
2018-08-22T15:50:11.995Z,11.17
2018-08-22T15:52:40.271Z,11.10
2018-08-22T15:55:12.019Z,11.10
2018-08-22T15:57:55.731Z,11.23
2018-08-22T16:00:32.802Z,11.40
2018-08-22T16:03:02.393Z,12.30
2018-08-22T16:05:30.724Z,12.20
2018-08-22T16:07:59.242Z,12.47
2018-08-22T16:10:27.551Z,13.73
2018-08-22T16:12:55.823Z,12.60
2018-08-22T16:15:25.235Z,12.47
2018-08-22T16:17:54.367Z,12.77
2018-08-22T16:20:26.936Z,12.97
2018-08-22T16:22:55.359Z,12.40
2018-08-22T16:25:30.226Z,11.50
2018-08-22T16:27:58.547Z,14.00
2018-08-22T16:30:26.762Z,14.30
2018-08-22T16:32:55.735Z,13.70
2018-08-22T16:35:23.918Z,14.13
2018-08-22T16:38:05.562Z,14.03
2018-08-22T16:40:36.427Z,13.87
2018-08-22T16:43:04.752Z,13.73
2018-08-22T16:45:39.974Z,15.47
2018-08-22T16:48:08.335Z,14.37
2018-08-22T16:50:36.539Z,14.80
2018-08-22T16:53:04.762Z,15.23
2018-08-22T16:55:33.162Z,15.97
2018-08-22T16:58:01.502Z,15.83
2018-08-22T17:00:36.366Z,14.90
2018-08-22T17:03:05.903Z,15.60
2018-08-22T17:05:34.302Z,15.30
2018-08-22T17:08:02.532Z,14.70
2018-08-22T17:11:05.655Z,15.00
2018-08-22T17:13:45.836Z,13.57
2018-08-22T17:16:14.097Z,12.93
2018-08-22T17:18:42.296Z,15.20
2018-08-22T17:21:10.802Z,14.00
2018-08-22T17:23:39.292Z,13.90
2018-08-22T17:26:12.500Z,13.90
2018-08-22T17:28:42.610Z,14.60
2018-08-22T17:31:11.567Z,14.30
2018-08-22T17:33:47.191Z,15.10
2018-08-22T17:36:15.463Z,13.43
2018-08-22T17:38:44.528Z,14.50
2018-08-22T17:41:13.074Z,14.30
2018-08-22T17:43:57.814Z,14.10
2018-08-22T17:46:28.114Z,14.83
2018-08-22T17:48:56.478Z,16.77
2018-08-22T17:51:24.696Z,16.10
2018-08-22T17:53:52.898Z,15.57
2018-08-22T17:56:22.782Z,14.30
2018-08-22T17:58:52.116Z,15.57
2018-08-22T18:01:20.600Z,14.27
2018-08-22T18:03:48.800Z,14.97
2018-08-22T18:06:17.345Z,13.90
2018-08-22T18:08:45.531Z,21.57
2018-08-22T18:11:13.744Z,27.13
2018-08-22T18:13:42.391Z,22.20
2018-08-22T18:16:17.078Z,16.30
2018-08-22T18:18:45.367Z,17.90
2018-08-22T18:21:13.611Z,16.73
2018-08-22T18:23:52.412Z,16.50
2018-08-22T18:26:20.691Z,23.03
2018-08-22T18:28:48.894Z,20.57
2018-08-22T18:31:17.155Z,14.47
2018-08-22T18:33:57.266Z,16.73
2018-08-22T18:36:26.479Z,17.00
2018-08-22T18:39:02.667Z,15.10
2018-08-22T18:41:30.889Z,17.30
2018-08-22T18:43:59.102Z,16.20
2018-08-22T18:46:27.325Z,18.20
2018-08-22T18:48:55.581Z,16.90
2018-08-22T18:51:23.795Z,17.13
2018-08-22T18:53:52.067Z,17.73
2018-08-22T18:56:21.700Z,16.20
2018-08-22T18:58:49.995Z,16.00
2018-08-22T19:01:18.738Z,16.13
2018-08-22T19:03:47.010Z,16.20
2018-08-22T19:06:15.311Z,16.27
2018-08-22T19:08:43.519Z,16.97
2018-08-22T19:11:11.863Z,15.50
2018-08-22T19:13:40.032Z,15.47
2018-08-22T19:16:09.611Z,14.60
2018-08-22T19:18:37.937Z,16.03
2018-08-22T19:21:07.427Z,16.37
2018-08-22T19:23:35.731Z,17.10
2018-08-22T19:26:04.955Z,16.63
2018-08-22T19:29:06.178Z,15.90
2018-08-22T19:31:35.292Z,15.93
2018-08-22T19:34:03.552Z,15.17
2018-08-22T19:36:31.843Z,16.27
2018-08-22T19:39:00.154Z,16.63
2018-08-22T19:41:32.448Z,15.30
2018-08-22T19:44:00.687Z,16.83
2018-08-22T19:46:29.010Z,18.13
2018-08-22T19:48:57.351Z,16.73
2018-08-22T19:51:25.535Z,15.70
2018-08-22T19:54:02.178Z,15.83
2018-08-22T19:56:30.899Z,16.50
2018-08-22T19:58:59.350Z,16.87
2018-08-22T20:01:30.658Z,16.40
2018-08-22T20:03:59.064Z,16.27
2018-08-22T20:06:27.514Z,17.13
2018-08-22T20:08:57.219Z,16.40
2018-08-22T20:11:25.826Z,16.50
2018-08-22T20:13:58.594Z,16.93
2018-08-22T20:16:26.862Z,16.53
2018-08-22T20:18:57.251Z,16.90
2018-08-22T20:21:30.066Z,17.83
2018-08-22T20:23:58.532Z,17.77
2018-08-22T20:26:27.449Z,16.57
2018-08-22T20:28:57.735Z,18.00
2018-08-22T20:31:26.032Z,18.00
2018-08-22T20:34:02.508Z,17.90
2018-08-22T20:36:31.095Z,18.30
2018-08-22T20:39:00.933Z,18.23
2018-08-22T20:41:29.207Z,19.77
2018-08-22T20:43:57.485Z,20.50
2018-08-22T20:46:25.806Z,18.50
2018-08-22T20:48:54.055Z,18.77
2018-08-22T20:51:22.500Z,20.83
2018-08-22T20:53:56.415Z,19.33
2018-08-22T20:56:24.745Z,20.17
2018-08-22T20:58:52.926Z,19.10
2018-08-22T21:01:21.475Z,20.20
2018-08-22T21:03:50.716Z,20.13
2018-08-22T21:06:18.950Z,20.40
2018-08-22T21:08:47.399Z,19.30
2018-08-22T21:11:15.655Z,20.13
2018-08-22T21:17:03.960Z,19.70
2018-08-22T21:19:32.227Z,19.13
2018-08-22T21:22:00.779Z,19.87
2018-08-22T21:24:29.128Z,18.73
2018-08-22T21:26:57.372Z,19.30
2018-08-22T21:29:25.724Z,19.20
2018-08-22T21:31:53.958Z,19.90
2018-08-22T21:34:23.628Z,18.90
2018-08-22T21:36:51.877Z,17.60
2018-08-22T21:39:25.348Z,16.53
2018-08-22T21:41:53.879Z,18.93
2018-08-22T21:44:22.927Z,17.53
2018-08-22T21:46:57.479Z,16.60
2018-08-22T21:49:25.855Z,16.70
2018-08-22T21:51:56.905Z,17.17
2018-08-22T21:54:25.277Z,17.27
2018-08-22T21:56:53.505Z,19.00
2018-08-22T21:59:21.742Z,19.07
2018-08-22T22:01:55.362Z,19.40
2018-08-22T22:04:29.589Z,17.43
2018-08-22T22:06:57.874Z,19.20
2018-08-22T22:09:26.099Z,18.60
2018-08-22T22:11:57.463Z,18.70
2018-08-22T22:14:26.566Z,17.20
2018-08-22T22:16:56.654Z,19.30
2018-08-22T22:19:25.979Z,19.23
2018-08-22T22:21:54.210Z,18.70
2018-08-22T22:24:22.536Z,18.33
2018-08-22T22:26:50.747Z,17.67
2018-08-22T22:29:19.055Z,19.60
2018-08-22T22:31:47.288Z,18.73
2018-08-22T22:34:15.542Z,19.47
2018-08-22T22:36:43.779Z,18.90
2018-08-22T22:39:44.586Z,19.80
2018-08-22T22:42:29.555Z,20.30
2018-08-22T22:44:59.606Z,18.27
2018-08-22T22:47:30.951Z,18.27
2018-08-22T22:49:59.758Z,19.47
2018-08-22T22:52:33.418Z,18.17
2018-08-22T22:55:02.940Z,19.33
2018-08-22T22:57:33.452Z,19.00
2018-08-22T23:00:02.639Z,17.93
2018-08-22T23:02:31.502Z,19.97
2018-08-22T23:05:00.546Z,18.33
2018-08-22T23:07:33.151Z,19.23
2018-08-22T23:10:03.670Z,18.30
2018-08-22T23:12:47.141Z,16.93
2018-08-22T23:15:17.749Z,18.27
2018-08-22T23:17:48.187Z,18.07
2018-08-22T23:20:34.670Z,18.33
2018-08-22T23:23:03.355Z,18.77
2018-08-22T23:25:31.917Z,19.33
2018-08-22T23:28:00.116Z,17.60
2018-08-22T23:30:37.324Z,18.80
2018-08-22T23:33:06.417Z,19.90
2018-08-22T23:35:35.623Z,19.70
2018-08-22T23:38:05.367Z,18.20
2018-08-22T23:40:34.763Z,18.30
2018-08-22T23:43:02.982Z,19.50
2018-08-22T23:45:31.318Z,19.13
2018-08-22T23:47:59.571Z,18.97
2018-08-22T23:50:38.162Z,20.07
2018-08-22T23:53:06.511Z,19.90
2018-08-22T23:55:34.782Z,19.70
2018-08-22T23:58:02.990Z,20.77
